sensor_id;sensor_type;location;lat;lon;timestamp;pressure;altitude;pressure_sealevel;temperature;humidity
42671;BME280;28283;55.426;37.756;2023-02-16T00:00:39;100223.22;;;-4.00;72.62
42671;BME280;28283;55.426;37.756;2023-02-16T00:05:41;100232.13;;;-4.03;72.40
42671;BME280;28283;55.426;37.756;2023-02-16T00:11:02;100210.84;;;-3.98;72.22
42671;BME280;28283;55.426;37.756;2023-02-16T00:16:23;100230.38;;;-3.72;71.66
42671;BME280;28283;55.426;37.756;2023-02-16T00:21:24;100218.91;;;-4.17;72.39
42671;BME280;28283;55.426;37.756;2023-02-16T00:26:25;100226.41;;;-3.79;71.57
42671;BME280;28283;55.426;37.756;2023-02-16T00:31:28;100230.22;;;-3.85;71.38
42671;BME280;28283;55.426;37.756;2023-02-16T00:36:31;100222.88;;;-4.10;72.00
42671;BME280;28283;55.426;37.756;2023-02-16T00:41:32;100227.25;;;-3.95;71.79
42671;BME280;28283;55.426;37.756;2023-02-16T00:46:50;100223.94;;;-4.29;73.12
42671;BME280;28283;55.426;37.756;2023-02-16T00:51:51;100225.25;;;-4.06;72.96
42671;BME280;28283;55.426;37.756;2023-02-16T00:56:52;100226.88;;;-4.19;72.62
42671;BME280;28283;55.426;37.756;2023-02-16T01:01:52;100220.72;;;-3.88;71.12
42671;BME280;28283;55.426;37.756;2023-02-16T01:06:53;100163.19;;;-4.38;70.86
42671;BME280;28283;55.426;37.756;2023-02-16T01:12:17;100223.94;;;-4.29;71.81
42671;BME280;28283;55.426;37.756;2023-02-16T01:17:18;100219.66;;;-4.15;71.47
42671;BME280;28283;55.426;37.756;2023-02-16T01:22:19;100226.88;;;-4.03;71.40
42671;BME280;28283;55.426;37.756;2023-02-16T01:27:20;100234.59;;;-4.16;71.43
42671;BME280;28283;55.426;37.756;2023-02-16T01:32:20;100201.72;;;-4.55;72.67
42671;BME280;28283;55.426;37.756;2023-02-16T01:37:21;100232.63;;;-4.12;72.03
42671;BME280;28283;55.426;37.756;2023-02-16T01:42:37;100229.16;;;-4.13;73.15
42671;BME280;28283;55.426;37.756;2023-02-16T01:47:48;100227.47;;;-4.14;72.04
42671;BME280;28283;55.426;37.756;2023-02-16T01:52:59;100203.25;;;-4.35;71.74
42671;BME280;28283;55.426;37.756;2023-02-16T01:58:04;100247.78;;;-4.33;73.28
42671;BME280;28283;55.426;37.756;2023-02-16T02:03:11;100242.97;;;-4.41;74.02
42671;BME280;28283;55.426;37.756;2023-02-16T02:08:41;100245.91;;;-4.31;74.45
42671;BME280;28283;55.426;37.756;2023-02-16T02:13:51;100234.34;;;-4.43;74.50
42671;BME280;28283;55.426;37.756;2023-02-16T02:18:55;100239.16;;;-4.35;74.43
42671;BME280;28283;55.426;37.756;2023-02-16T02:29:38;100244.56;;;-4.23;74.44
42671;BME280;28283;55.426;37.756;2023-02-16T02:35:42;100241.72;;;-4.18;74.75
42671;BME280;28283;55.426;37.756;2023-02-16T02:41:08;100231.44;;;-4.07;73.59
42671;BME280;28283;55.426;37.756;2023-02-16T02:46:20;100234.59;;;-4.00;72.93
42671;BME280;28283;55.426;37.756;2023-02-16T02:51:24;100226.28;;;-4.08;73.47
42671;BME280;28283;55.426;37.756;2023-02-16T02:56:30;100167.69;;;-4.56;73.38
42671;BME280;28283;55.426;37.756;2023-02-16T03:02:03;100207.75;;;-4.37;73.32
42671;BME280;28283;55.426;37.756;2023-02-16T03:07:04;100225.94;;;-4.34;74.12
42671;BME280;28283;55.426;37.756;2023-02-16T03:12:07;100214.84;;;-4.55;74.73
42671;BME280;28283;55.426;37.756;2023-02-16T03:17:35;100220.69;;;-4.34;74.77
42671;BME280;28283;55.426;37.756;2023-02-16T03:22:54;100215.78;;;-4.40;74.19
42671;BME280;28283;55.426;37.756;2023-02-16T03:28:15;100235.00;;;-4.55;74.66
42671;BME280;28283;55.426;37.756;2023-02-16T03:33:36;100223.28;;;-4.66;75.63
42671;BME280;28283;55.426;37.756;2023-02-16T03:38:37;100235.91;;;-4.56;75.49
42671;BME280;28283;55.426;37.756;2023-02-16T03:43:38;100229.06;;;-4.59;76.56
42671;BME280;28283;55.426;37.756;2023-02-16T03:48:39;100212.34;;;-4.74;76.32
42671;BME280;28283;55.426;37.756;2023-02-16T03:53:40;100218.69;;;-4.78;76.79
42671;BME280;28283;55.426;37.756;2023-02-16T03:58:40;100231.34;;;-4.53;76.72
42671;BME280;28283;55.426;37.756;2023-02-16T04:03:41;100223.41;;;-4.51;76.93
42671;BME280;28283;55.426;37.756;2023-02-16T04:08:42;100233.53;;;-4.45;76.49
42671;BME280;28283;55.426;37.756;2023-02-16T04:13:42;100229.34;;;-4.32;76.89
42671;BME280;28283;55.426;37.756;2023-02-16T04:18:44;100223.41;;;-4.35;76.41
42671;BME280;28283;55.426;37.756;2023-02-16T04:23:44;100218.31;;;-4.38;76.28
42671;BME280;28283;55.426;37.756;2023-02-16T04:28:45;100213.44;;;-4.29;76.58
42671;BME280;28283;55.426;37.756;2023-02-16T04:33:45;100223.41;;;-4.35;76.80
42671;BME280;28283;55.426;37.756;2023-02-16T04:38:46;100227.22;;;-4.25;76.43
42671;BME280;28283;55.426;37.756;2023-02-16T04:43:47;100181.16;;;-4.63;76.20
42671;BME280;28283;55.426;37.756;2023-02-16T04:48:47;100231.69;;;-4.27;76.31
42671;BME280;28283;55.426;37.756;2023-02-16T04:53:48;100218.31;;;-4.38;76.29
42671;BME280;28283;55.426;37.756;2023-02-16T04:58:48;100223.06;;;-4.29;76.60
42671;BME280;28283;55.426;37.756;2023-02-16T05:03:49;100233.31;;;-4.41;76.99
42671;BME280;28283;55.426;37.756;2023-02-16T05:08:50;100228.50;;;-4.32;77.42
42671;BME280;28283;55.426;37.756;2023-02-16T05:13:51;100195.94;;;-4.62;76.86
42671;BME280;28283;55.426;37.756;2023-02-16T05:19:10;100194.78;;;-4.72;77.55
42671;BME280;28283;55.426;37.756;2023-02-16T05:24:11;100231.34;;;-4.53;77.49
42671;BME280;28283;55.426;37.756;2023-02-16T05:29:11;100227.38;;;-4.44;77.93
42671;BME280;28283;55.426;37.756;2023-02-16T05:34:12;100210.03;;;-4.63;77.26
42671;BME280;28283;55.426;37.756;2023-02-16T05:39:13;100229.75;;;-4.39;77.84
42671;BME280;28283;55.426;37.756;2023-02-16T05:44:13;100235.59;;;-4.50;77.39
42671;BME280;28283;55.426;37.756;2023-02-16T05:49:15;100179.69;;;-4.84;77.49
42671;BME280;28283;55.426;37.756;2023-02-16T05:54:17;100238.03;;;-4.47;77.85
42671;BME280;28283;55.426;37.756;2023-02-16T05:59:17;100233.38;;;-4.42;77.63
42671;BME280;28283;55.426;37.756;2023-02-16T06:04:19;100236.28;;;-4.47;78.24
42671;BME280;28283;55.426;37.756;2023-02-16T06:09:20;100238.78;;;-4.45;77.58
42671;BME280;28283;55.426;37.756;2023-02-16T06:14:20;100241.44;;;-4.29;77.87
42671;BME280;28283;55.426;37.756;2023-02-16T06:19:21;100238.31;;;-4.36;77.88
42671;BME280;28283;55.426;37.756;2023-02-16T06:24:21;100228.31;;;-4.13;77.05
42671;BME280;28283;55.426;37.756;2023-02-16T06:29:22;100241.50;;;-4.31;77.32
42671;BME280;28283;55.426;37.756;2023-02-16T06:34:22;100229.66;;;-4.22;77.76
42671;BME280;28283;55.426;37.756;2023-02-16T06:39:23;100236.19;;;-4.29;77.13
42671;BME280;28283;55.426;37.756;2023-02-16T06:44:24;100227.03;;;-4.22;77.51
42671;BME280;28283;55.426;37.756;2023-02-16T06:49:25;100214.59;;;-4.34;76.74
42671;BME280;28283;55.426;37.756;2023-02-16T06:54:26;100229.06;;;-4.27;76.96
42671;BME280;28283;55.426;37.756;2023-02-16T06:59:27;100232.81;;;-4.15;77.50
42671;BME280;28283;55.426;37.756;2023-02-16T07:04:28;100175.47;;;-4.55;76.83
42671;BME280;28283;55.426;37.756;2023-02-16T07:09:28;100225.50;;;-4.10;77.35
42671;BME280;28283;55.426;37.756;2023-02-16T07:14:30;100224.75;;;-4.12;76.95
42671;BME280;28283;55.426;37.756;2023-02-16T07:19:31;100192.22;;;-4.26;76.98
42671;BME280;28283;55.426;37.756;2023-02-16T07:24:33;100217.28;;;-4.04;76.41
42671;BME280;28283;55.426;37.756;2023-02-16T07:29:33;100219.06;;;-3.89;76.75
42671;BME280;28283;55.426;37.756;2023-02-16T07:34:34;100230.84;;;-3.96;76.11
42671;BME280;28283;55.426;37.756;2023-02-16T07:39:35;100227.75;;;-3.72;76.48
42671;BME280;28283;55.426;37.756;2023-02-16T07:44:35;100212.19;;;-3.91;76.16
42671;BME280;28283;55.426;37.756;2023-02-16T07:49:36;100220.78;;;-3.73;75.67
42671;BME280;28283;55.426;37.756;2023-02-16T07:54:37;100204.13;;;-3.88;75.89
42671;BME280;28283;55.426;37.756;2023-02-16T07:59:37;100221.78;;;-3.60;75.84
42671;BME280;28283;55.426;37.756;2023-02-16T08:04:38;100210.09;;;-3.70;75.23
42671;BME280;28283;55.426;37.756;2023-02-16T08:09:40;100216.41;;;-3.73;75.60
42671;BME280;28283;55.426;37.756;2023-02-16T08:14:41;100217.13;;;-3.55;75.90
42671;BME280;28283;55.426;37.756;2023-02-16T08:19:41;100203.66;;;-3.65;75.00
42671;BME280;28283;55.426;37.756;2023-02-16T08:24:42;100212.72;;;-3.40;75.81
42671;BME280;28283;55.426;37.756;2023-02-16T08:29:42;100207.75;;;-3.44;75.19
42671;BME280;28283;55.426;37.756;2023-02-16T08:34:43;100218.75;;;-3.38;75.46
42671;BME280;28283;55.426;37.756;2023-02-16T08:39:43;100167.53;;;-3.61;74.93
42671;BME280;28283;55.426;37.756;2023-02-16T08:44:45;100213.22;;;-3.33;74.65
42671;BME280;28283;55.426;37.756;2023-02-16T08:49:46;100184.00;;;-3.43;75.21
42671;BME280;28283;55.426;37.756;2023-02-16T08:54:47;100219.44;;;-3.05;75.27
42671;BME280;28283;55.426;37.756;2023-02-16T08:59:47;100201.22;;;-3.37;74.41
42671;BME280;28283;55.426;37.756;2023-02-16T09:05:08;100180.69;;;-3.47;74.31
42671;BME280;28283;55.426;37.756;2023-02-16T09:10:09;100202.56;;;-3.16;75.23
42671;BME280;28283;55.426;37.756;2023-02-16T09:15:09;100202.81;;;-3.06;73.89
42671;BME280;28283;55.426;37.756;2023-02-16T09:20:10;100189.78;;;-2.93;72.18
42671;BME280;28283;55.426;37.756;2023-02-16T09:25:11;100200.78;;;-3.01;73.02
42671;BME280;28283;55.426;37.756;2023-02-16T09:30:12;100203.66;;;-3.20;72.94
42671;BME280;28283;55.426;37.756;2023-02-16T09:35:13;100185.81;;;-2.86;73.75
42671;BME280;28283;55.426;37.756;2023-02-16T09:40:15;100194.66;;;-2.73;71.97
42671;BME280;28283;55.426;37.756;2023-02-16T09:45:18;100171.66;;;-2.83;71.24
42671;BME280;28283;55.426;37.756;2023-02-16T09:50:22;100187.31;;;-2.82;72.04
42671;BME280;28283;55.426;37.756;2023-02-16T09:55:25;100180.94;;;-2.78;72.62
42671;BME280;28283;55.426;37.756;2023-02-16T10:05:48;100183.75;;;-2.95;71.81
42671;BME280;28283;55.426;37.756;2023-02-16T10:11:11;100182.16;;;-2.83;71.79
42671;BME280;28283;55.426;37.756;2023-02-16T10:16:45;100166.75;;;-2.75;71.54
42671;BME280;28283;55.426;37.756;2023-02-16T10:21:53;100150.88;;;-2.88;70.41
42671;BME280;28283;55.426;37.756;2023-02-16T10:27:03;100166.19;;;-2.95;69.18
42671;BME280;28283;55.426;37.756;2023-02-16T10:32:27;100133.03;;;-3.40;69.96
42671;BME280;28283;55.426;37.756;2023-02-16T10:47:59;100149.94;;;-2.87;69.15
42671;BME280;28283;55.426;37.756;2023-02-16T10:53:02;100163.78;;;-2.15;69.24
42671;BME280;28283;55.426;37.756;2023-02-16T10:58:04;100163.66;;;-1.86;68.00
42671;BME280;28283;55.426;37.756;2023-02-16T11:03:13;100154.50;;;-1.80;65.95
42671;BME280;28283;55.426;37.756;2023-02-16T11:08:14;100153.69;;;-1.68;66.13
42671;BME280;28283;55.426;37.756;2023-02-16T11:13:26;100153.22;;;-1.35;64.02
42671;BME280;28283;55.426;37.756;2023-02-16T11:18:31;100145.53;;;-1.78;63.77
42671;BME280;28283;55.426;37.756;2023-02-16T11:23:35;100151.38;;;-2.00;64.32
42671;BME280;28283;55.426;37.756;2023-02-16T11:28:43;100157.13;;;-1.80;64.61
42671;BME280;28283;55.426;37.756;2023-02-16T11:33:56;100156.88;;;-1.11;59.84
42671;BME280;28283;55.426;37.756;2023-02-16T11:39:18;100157.47;;;-0.69;61.20
42671;BME280;28283;55.426;37.756;2023-02-16T11:44:41;100155.72;;;-0.45;58.01
42671;BME280;28283;55.426;37.756;2023-02-16T11:49:43;100152.94;;;-0.80;59.17
42671;BME280;28283;55.426;37.756;2023-02-16T11:59:49;100125.66;;;-1.56;60.00
42671;BME280;28283;55.426;37.756;2023-02-16T12:20:29;100149.00;;;-2.44;60.04
42671;BME280;28283;55.426;37.756;2023-02-16T12:25:52;100154.56;;;-2.49;61.81
42671;BME280;28283;55.426;37.756;2023-02-16T12:41:44;100146.19;;;-2.41;59.79
42671;BME280;28283;55.426;37.756;2023-02-16T12:46:50;100134.75;;;-2.55;60.85
42671;BME280;28283;55.426;37.756;2023-02-16T12:57:26;100072.34;;;-2.94;61.55
42671;BME280;28283;55.426;37.756;2023-02-16T13:02:35;100140.31;;;-2.74;61.55
42671;BME280;28283;55.426;37.756;2023-02-16T13:07:39;100134.13;;;-2.73;61.92
42671;BME280;28283;55.426;37.756;2023-02-16T13:12:49;100149.47;;;-2.79;61.46
42671;BME280;28283;55.426;37.756;2023-02-16T13:18:01;100151.81;;;-2.89;61.13
42671;BME280;28283;55.426;37.756;2023-02-16T13:34:42;100152.28;;;-2.82;60.68
42671;BME280;28283;55.426;37.756;2023-02-16T13:39:52;100149.81;;;-2.85;61.31
42671;BME280;28283;55.426;37.756;2023-02-16T13:45:02;100146.84;;;-3.08;61.67
42671;BME280;28283;55.426;37.756;2023-02-16T13:50:29;100138.66;;;-3.18;62.11
42671;BME280;28283;55.426;37.756;2023-02-16T13:55:33;100145.88;;;-3.36;62.81
42671;BME280;28283;55.426;37.756;2023-02-16T14:00:38;100150.38;;;-3.38;63.79
42671;BME280;28283;55.426;37.756;2023-02-16T14:06:35;100152.00;;;-3.35;63.54
42671;BME280;28283;55.426;37.756;2023-02-16T14:27:48;100166.81;;;-3.49;65.93
42671;BME280;28283;55.426;37.756;2023-02-16T14:32:55;100129.63;;;-3.71;66.20
42671;BME280;28283;55.426;37.756;2023-02-16T14:43:02;100163.13;;;-3.60;65.90
42671;BME280;28283;55.426;37.756;2023-02-16T14:58:56;100171.34;;;-3.97;65.39
42671;BME280;28283;55.426;37.756;2023-02-16T15:03:59;100171.06;;;-4.07;66.11
42671;BME280;28283;55.426;37.756;2023-02-16T15:09:02;100173.22;;;-3.99;65.87
42671;BME280;28283;55.426;37.756;2023-02-16T15:14:07;100170.72;;;-4.16;65.21
42671;BME280;28283;55.426;37.756;2023-02-16T15:19:15;100167.69;;;-4.25;66.10
42671;BME280;28283;55.426;37.756;2023-02-16T15:24:22;100172.03;;;-4.39;65.78
42671;BME280;28283;55.426;37.756;2023-02-16T15:29:25;100168.28;;;-4.51;65.81
42671;BME280;28283;55.426;37.756;2023-02-16T15:34:32;100170.75;;;-4.64;66.03
42671;BME280;28283;55.426;37.756;2023-02-16T15:39:34;100169.69;;;-4.77;66.09
42671;BME280;28283;55.426;37.756;2023-02-16T15:44:35;100178.00;;;-4.85;66.19
42671;BME280;28283;55.426;37.756;2023-02-16T15:49:37;100171.72;;;-4.99;66.14
42671;BME280;28283;55.426;37.756;2023-02-16T15:54:39;100181.00;;;-5.09;66.67
42671;BME280;28283;55.426;37.756;2023-02-16T15:59:52;100177.22;;;-5.21;66.54
42671;BME280;28283;55.426;37.756;2023-02-16T16:04:57;100188.88;;;-5.26;66.81
42671;BME280;28283;55.426;37.756;2023-02-16T16:09:59;100190.81;;;-5.30;67.03
42671;BME280;28283;55.426;37.756;2023-02-16T16:15:01;100187.75;;;-5.38;66.90
42671;BME280;28283;55.426;37.756;2023-02-16T16:30:37;100192.47;;;-5.62;67.59
42671;BME280;28283;55.426;37.756;2023-02-16T16:35:48;100198.78;;;-5.66;67.40
42671;BME280;28283;55.426;37.756;2023-02-16T16:40:52;100195.00;;;-5.78;68.20
42671;BME280;28283;55.426;37.756;2023-02-16T16:51:19;100195.59;;;-5.90;68.82
42671;BME280;28283;55.426;37.756;2023-02-16T16:56:21;100197.78;;;-5.99;68.56
42671;BME280;28283;55.426;37.756;2023-02-16T17:01:24;100192.31;;;-6.11;70.01
42671;BME280;28283;55.426;37.756;2023-02-16T17:06:28;100163.94;;;-6.38;70.05
42671;BME280;28283;55.426;37.756;2023-02-16T17:11:31;100186.25;;;-6.31;70.23
42671;BME280;28283;55.426;37.756;2023-02-16T17:16:38;100180.06;;;-6.47;71.02
42671;BME280;28283;55.426;37.756;2023-02-16T17:21:40;100201.97;;;-6.50;70.42
42671;BME280;28283;55.426;37.756;2023-02-16T17:26:41;100204.75;;;-6.53;71.45
42671;BME280;28283;55.426;37.756;2023-02-16T17:31:42;100189.69;;;-6.67;71.81
42671;BME280;28283;55.426;37.756;2023-02-16T17:36:43;100190.66;;;-6.69;70.76
42671;BME280;28283;55.426;37.756;2023-02-16T17:41:44;100212.38;;;-6.67;71.01
42671;BME280;28283;55.426;37.756;2023-02-16T17:46:45;100204.09;;;-6.77;71.31
42671;BME280;28283;55.426;37.756;2023-02-16T17:51:45;100164.31;;;-7.03;71.38
42671;BME280;28283;55.426;37.756;2023-02-16T17:56:46;100215.53;;;-6.80;71.05
42671;BME280;28283;55.426;37.756;2023-02-16T18:01:47;100216.94;;;-6.92;71.48
42671;BME280;28283;55.426;37.756;2023-02-16T18:06:48;100197.50;;;-7.05;71.30
42671;BME280;28283;55.426;37.756;2023-02-16T18:11:50;100221.38;;;-6.94;70.96
42671;BME280;28283;55.426;37.756;2023-02-16T18:16:51;100226.75;;;-6.97;70.70
42671;BME280;28283;55.426;37.756;2023-02-16T18:21:52;100216.56;;;-7.03;71.42
42671;BME280;28283;55.426;37.756;2023-02-16T18:26:53;100220.78;;;-7.00;71.80
42671;BME280;28283;55.426;37.756;2023-02-16T18:31:54;100208.44;;;-7.16;71.30
42671;BME280;28283;55.426;37.756;2023-02-16T18:36:55;100227.09;;;-7.04;71.58
42671;BME280;28283;55.426;37.756;2023-02-16T18:41:56;100230.66;;;-7.07;71.33
42671;BME280;28283;55.426;37.756;2023-02-16T18:46:57;100217.53;;;-7.05;70.85
42671;BME280;28283;55.426;37.756;2023-02-16T18:51:57;100222.56;;;-7.01;71.42
42671;BME280;28283;55.426;37.756;2023-02-16T18:56:58;100207.09;;;-7.05;71.24
42671;BME280;28283;55.426;37.756;2023-02-16T19:01:59;100216.28;;;-6.97;71.83
42671;BME280;28283;55.426;37.756;2023-02-16T19:07:00;100217.28;;;-6.99;70.49
42671;BME280;28283;55.426;37.756;2023-02-16T19:12:01;100182.50;;;-7.20;70.83
42671;BME280;28283;55.426;37.756;2023-02-16T19:17:02;100222.44;;;-6.98;71.04
42671;BME280;28283;55.426;37.756;2023-02-16T19:22:03;100215.44;;;-6.97;71.03
42671;BME280;28283;55.426;37.756;2023-02-16T19:27:03;100200.13;;;-7.05;70.87
42671;BME280;28283;55.426;37.756;2023-02-16T19:32:04;100206.69;;;-6.96;70.95
42671;BME280;28283;55.426;37.756;2023-02-16T19:37:05;100197.56;;;-7.06;70.92
42671;BME280;28283;55.426;37.756;2023-02-16T19:42:06;100208.78;;;-7.04;70.50
42671;BME280;28283;55.426;37.756;2023-02-16T19:47:06;100205.00;;;-7.18;71.66
42671;BME280;28283;55.426;37.756;2023-02-16T19:52:07;100192.28;;;-7.25;70.94
42671;BME280;28283;55.426;37.756;2023-02-16T19:57:08;100210.44;;;-7.22;71.29
42671;BME280;28283;55.426;37.756;2023-02-16T20:02:12;100195.03;;;-7.29;72.14
42671;BME280;28283;55.426;37.756;2023-02-16T20:07:15;100193.22;;;-7.26;71.11
42671;BME280;28283;55.426;37.756;2023-02-16T20:12:15;100193.75;;;-7.39;71.25
42671;BME280;28283;55.426;37.756;2023-02-16T20:17:16;100190.91;;;-7.34;71.40
42671;BME280;28283;55.426;37.756;2023-02-16T20:22:16;100188.66;;;-7.42;71.85
42671;BME280;28283;55.426;37.756;2023-02-16T20:27:17;100184.47;;;-7.46;71.07
42671;BME280;28283;55.426;37.756;2023-02-16T20:32:18;100190.47;;;-7.44;71.39
42671;BME280;28283;55.426;37.756;2023-02-16T20:37:18;100192.16;;;-7.43;71.78
42671;BME280;28283;55.426;37.756;2023-02-16T20:42:19;100186.38;;;-7.50;71.49
42671;BME280;28283;55.426;37.756;2023-02-16T20:47:20;100138.38;;;-7.88;72.18
42671;BME280;28283;55.426;37.756;2023-02-16T20:52:20;100188.91;;;-7.69;71.68
42671;BME280;28283;55.426;37.756;2023-02-16T20:57:21;100172.06;;;-7.82;72.74
42671;BME280;28283;55.426;37.756;2023-02-16T21:02:22;100171.75;;;-7.74;72.90
42671;BME280;28283;55.426;37.756;2023-02-16T21:07:22;100196.34;;;-7.59;72.30
42671;BME280;28283;55.426;37.756;2023-02-16T21:12:23;100189.84;;;-7.70;71.29
42671;BME280;28283;55.426;37.756;2023-02-16T21:17:24;100178.03;;;-8.00;70.57
42671;BME280;28283;55.426;37.756;2023-02-16T21:22:24;100189.34;;;-8.00;71.82
42671;BME280;28283;55.426;37.756;2023-02-16T21:27:25;100188.00;;;-8.10;71.28
42671;BME280;28283;55.426;37.756;2023-02-16T21:32:25;100189.53;;;-8.27;72.26
42671;BME280;28283;55.426;37.756;2023-02-16T21:37:26;100166.16;;;-8.50;72.60
42671;BME280;28283;55.426;37.756;2023-02-16T21:42:27;100186.41;;;-8.57;74.00
42671;BME280;28283;55.426;37.756;2023-02-16T21:47:28;100173.69;;;-8.88;74.62
42671;BME280;28283;55.426;37.756;2023-02-16T21:52:47;100159.84;;;-8.90;74.18
42671;BME280;28283;55.426;37.756;2023-02-16T21:57:48;100183.22;;;-8.65;74.82
42671;BME280;28283;55.426;37.756;2023-02-16T22:02:48;100186.28;;;-8.54;74.15
42671;BME280;28283;55.426;37.756;2023-02-16T22:07:49;100174.81;;;-8.50;74.82
42671;BME280;28283;55.426;37.756;2023-02-16T22:12:50;100193.34;;;-8.35;74.82
42671;BME280;28283;55.426;37.756;2023-02-16T22:17:50;100192.19;;;-8.28;74.21
42671;BME280;28283;55.426;37.756;2023-02-16T22:22:52;100201.78;;;-8.29;74.63
42671;BME280;28283;55.426;37.756;2023-02-16T22:27:52;100200.59;;;-8.20;74.38
42671;BME280;28283;55.426;37.756;2023-02-16T22:32:54;100186.94;;;-8.27;74.14
42671;BME280;28283;55.426;37.756;2023-02-16T22:37:54;100145.25;;;-8.49;74.13
42671;BME280;28283;55.426;37.756;2023-02-16T22:42:56;100185.22;;;-8.28;73.86
42671;BME280;28283;55.426;37.756;2023-02-16T22:47:57;100182.97;;;-8.37;75.22
42671;BME280;28283;55.426;37.756;2023-02-16T22:52:58;100181.84;;;-8.30;74.57
42671;BME280;28283;55.426;37.756;2023-02-16T22:57:58;100179.47;;;-8.36;74.36
42671;BME280;28283;55.426;37.756;2023-02-16T23:02:59;100183.03;;;-8.38;75.71
42671;BME280;28283;55.426;37.756;2023-02-16T23:08:00;100189.91;;;-8.14;74.51
42671;BME280;28283;55.426;37.756;2023-02-16T23:13:01;100184.78;;;-8.17;74.91
42671;BME280;28283;55.426;37.756;2023-02-16T23:18:01;100174.19;;;-8.12;75.66
42671;BME280;28283;55.426;37.756;2023-02-16T23:23:02;100173.13;;;-8.08;75.49
42671;BME280;28283;55.426;37.756;2023-02-16T23:28:03;100160.28;;;-8.35;75.70
42671;BME280;28283;55.426;37.756;2023-02-16T23:33:04;100168.34;;;-8.19;75.51
42671;BME280;28283;55.426;37.756;2023-02-16T23:38:06;100101.88;;;-8.51;76.18
42671;BME280;28283;55.426;37.756;2023-02-16T23:43:07;100169.13;;;-8.17;75.18
42671;BME280;28283;55.426;37.756;2023-02-16T23:48:08;100160.47;;;-8.17;74.99
42671;BME280;28283;55.426;37.756;2023-02-16T23:53:08;100164.19;;;-8.23;75.73
42671;BME280;28283;55.426;37.756;2023-02-16T23:58:09;100162.97;;;-8.14;74.84
